sensor_id;sensor_type;location;lat;lon;timestamp;P1;durP1;ratioP1;P2;durP2;ratioP2
55053;SDS011;40954;45.668;18.980;2023-02-15T00:01:32;65.65;;;36.05;;
55053;SDS011;40954;45.668;18.980;2023-02-15T00:03:59;64.07;;;36.10;;
55053;SDS011;40954;45.668;18.980;2023-02-15T00:06:25;65.97;;;35.92;;
55053;SDS011;40954;45.668;18.980;2023-02-15T00:08:51;61.60;;;36.25;;
55053;SDS011;40954;45.668;18.980;2023-02-15T00:11:18;64.82;;;35.28;;
55053;SDS011;40954;45.668;18.980;2023-02-15T00:14:05;67.55;;;35.95;;
55053;SDS011;40954;45.668;18.980;2023-02-15T00:16:31;58.50;;;34.88;;
55053;SDS011;40954;45.668;18.980;2023-02-15T00:18:57;64.43;;;33.72;;
55053;SDS011;40954;45.668;18.980;2023-02-15T00:21:26;59.45;;;33.15;;
55053;SDS011;40954;45.668;18.980;2023-02-15T00:23:53;57.90;;;31.77;;
55053;SDS011;40954;45.668;18.980;2023-02-15T00:26:19;57.90;;;30.75;;
55053;SDS011;40954;45.668;18.980;2023-02-15T00:28:45;51.65;;;29.08;;
55053;SDS011;40954;45.668;18.980;2023-02-15T00:31:11;45.70;;;27.10;;
55053;SDS011;40954;45.668;18.980;2023-02-15T00:33:38;41.33;;;26.63;;
55053;SDS011;40954;45.668;18.980;2023-02-15T00:36:05;45.33;;;27.65;;
55053;SDS011;40954;45.668;18.980;2023-02-15T00:38:32;35.72;;;24.02;;
55053;SDS011;40954;45.668;18.980;2023-02-15T00:40:58;44.25;;;26.00;;
55053;SDS011;40954;45.668;18.980;2023-02-15T00:43:25;43.33;;;26.20;;
55053;SDS011;40954;45.668;18.980;2023-02-15T00:45:51;49.45;;;29.25;;
55053;SDS011;40954;45.668;18.980;2023-02-15T00:48:18;47.38;;;29.55;;
55053;SDS011;40954;45.668;18.980;2023-02-15T00:50:45;50.40;;;29.90;;
55053;SDS011;40954;45.668;18.980;2023-02-15T00:53:11;56.40;;;32.95;;
55053;SDS011;40954;45.668;18.980;2023-02-15T00:55:37;62.22;;;37.30;;
55053;SDS011;40954;45.668;18.980;2023-02-15T00:58:05;55.90;;;35.58;;
55053;SDS011;40954;45.668;18.980;2023-02-15T01:00:31;56.47;;;34.85;;
55053;SDS011;40954;45.668;18.980;2023-02-15T01:02:57;58.63;;;35.88;;
55053;SDS011;40954;45.668;18.980;2023-02-15T01:05:23;50.17;;;31.52;;
55053;SDS011;40954;45.668;18.980;2023-02-15T01:07:49;54.92;;;32.85;;
55053;SDS011;40954;45.668;18.980;2023-02-15T01:10:15;44.45;;;27.88;;
55053;SDS011;40954;45.668;18.980;2023-02-15T01:12:41;47.13;;;28.55;;
55053;SDS011;40954;45.668;18.980;2023-02-15T01:15:07;40.90;;;26.48;;
55053;SDS011;40954;45.668;18.980;2023-02-15T01:17:33;46.08;;;27.77;;
55053;SDS011;40954;45.668;18.980;2023-02-15T01:19:59;43.67;;;28.85;;
55053;SDS011;40954;45.668;18.980;2023-02-15T01:22:25;44.30;;;28.83;;
55053;SDS011;40954;45.668;18.980;2023-02-15T01:24:51;45.38;;;30.40;;
55053;SDS011;40954;45.668;18.980;2023-02-15T01:27:17;48.70;;;30.55;;
55053;SDS011;40954;45.668;18.980;2023-02-15T01:29:43;46.78;;;29.85;;
55053;SDS011;40954;45.668;18.980;2023-02-15T01:32:09;45.30;;;29.50;;
55053;SDS011;40954;45.668;18.980;2023-02-15T01:34:35;42.40;;;28.33;;
55053;SDS011;40954;45.668;18.980;2023-02-15T01:37:01;44.67;;;28.08;;
55053;SDS011;40954;45.668;18.980;2023-02-15T01:39:27;39.47;;;27.33;;
55053;SDS011;40954;45.668;18.980;2023-02-15T01:41:53;41.80;;;27.90;;
55053;SDS011;40954;45.668;18.980;2023-02-15T01:44:44;38.95;;;26.33;;
55053;SDS011;40954;45.668;18.980;2023-02-15T01:47:07;44.47;;;28.00;;
55053;SDS011;40954;45.668;18.980;2023-02-15T01:49:33;43.97;;;28.55;;
55053;SDS011;40954;45.668;18.980;2023-02-15T01:51:59;47.78;;;28.10;;
55053;SDS011;40954;45.668;18.980;2023-02-15T01:54:32;42.53;;;27.42;;
55053;SDS011;40954;45.668;18.980;2023-02-15T01:57:02;43.67;;;27.35;;
55053;SDS011;40954;45.668;18.980;2023-02-15T01:59:29;47.88;;;30.25;;
55053;SDS011;40954;45.668;18.980;2023-02-15T02:01:56;62.45;;;37.33;;
55053;SDS011;40954;45.668;18.980;2023-02-15T02:06:53;60.78;;;38.05;;
55053;SDS011;40954;45.668;18.980;2023-02-15T02:09:20;63.33;;;37.53;;
55053;SDS011;40954;45.668;18.980;2023-02-15T02:11:46;54.78;;;34.88;;
55053;SDS011;40954;45.668;18.980;2023-02-15T02:14:13;42.67;;;28.58;;
55053;SDS011;40954;45.668;18.980;2023-02-15T02:16:43;48.88;;;31.60;;
55053;SDS011;40954;45.668;18.980;2023-02-15T02:24:44;46.47;;;30.23;;
55053;SDS011;40954;45.668;18.980;2023-02-15T02:37:49;63.13;;;34.88;;
55053;SDS011;40954;45.668;18.980;2023-02-15T02:42:49;44.75;;;28.75;;
55053;SDS011;40954;45.668;18.980;2023-02-15T02:45:37;47.58;;;29.85;;
55053;SDS011;40954;45.668;18.980;2023-02-15T02:48:07;45.85;;;29.33;;
55053;SDS011;40954;45.668;18.980;2023-02-15T02:50:34;47.88;;;28.95;;
55053;SDS011;40954;45.668;18.980;2023-02-15T02:53:00;45.95;;;27.02;;
55053;SDS011;40954;45.668;18.980;2023-02-15T02:55:37;40.67;;;25.73;;
55053;SDS011;40954;45.668;18.980;2023-02-15T02:58:09;44.28;;;26.25;;
55053;SDS011;40954;45.668;18.980;2023-02-15T03:03:03;39.17;;;25.60;;
55053;SDS011;40954;45.668;18.980;2023-02-15T03:05:31;45.22;;;26.35;;
55053;SDS011;40954;45.668;18.980;2023-02-15T03:07:58;43.08;;;26.83;;
55053;SDS011;40954;45.668;18.980;2023-02-15T03:10:26;39.20;;;25.90;;
55053;SDS011;40954;45.668;18.980;2023-02-15T03:12:54;44.47;;;27.80;;
55053;SDS011;40954;45.668;18.980;2023-02-15T03:15:24;43.50;;;27.35;;
55053;SDS011;40954;45.668;18.980;2023-02-15T03:17:54;43.25;;;27.13;;
55053;SDS011;40954;45.668;18.980;2023-02-15T03:20:28;39.85;;;25.20;;
55053;SDS011;40954;45.668;18.980;2023-02-15T03:22:57;48.78;;;29.15;;
55053;SDS011;40954;45.668;18.980;2023-02-15T03:25:26;44.97;;;26.88;;
55053;SDS011;40954;45.668;18.980;2023-02-15T03:27:55;41.65;;;26.95;;
55053;SDS011;40954;45.668;18.980;2023-02-15T03:30:21;44.53;;;28.08;;
55053;SDS011;40954;45.668;18.980;2023-02-15T03:32:48;45.70;;;29.52;;
55053;SDS011;40954;45.668;18.980;2023-02-15T03:35:15;46.92;;;29.70;;
55053;SDS011;40954;45.668;18.980;2023-02-15T03:37:42;45.90;;;29.33;;
55053;SDS011;40954;45.668;18.980;2023-02-15T03:40:11;50.22;;;31.27;;
55053;SDS011;40954;45.668;18.980;2023-02-15T03:43:43;44.42;;;28.77;;
55053;SDS011;40954;45.668;18.980;2023-02-15T03:45:49;47.15;;;29.30;;
55053;SDS011;40954;45.668;18.980;2023-02-15T03:48:25;43.63;;;29.67;;
55053;SDS011;40954;45.668;18.980;2023-02-15T03:50:53;50.33;;;30.30;;
55053;SDS011;40954;45.668;18.980;2023-02-15T03:53:40;44.92;;;29.38;;
55053;SDS011;40954;45.668;18.980;2023-02-15T03:56:07;47.25;;;30.02;;
55053;SDS011;40954;45.668;18.980;2023-02-15T03:58:33;49.80;;;31.50;;
55053;SDS011;40954;45.668;18.980;2023-02-15T04:04:32;43.30;;;28.95;;
55053;SDS011;40954;45.668;18.980;2023-02-15T04:06:58;48.30;;;30.50;;
55053;SDS011;40954;45.668;18.980;2023-02-15T04:09:25;47.35;;;30.92;;
55053;SDS011;40954;45.668;18.980;2023-02-15T04:12:09;51.35;;;30.83;;
55053;SDS011;40954;45.668;18.980;2023-02-15T04:14:35;52.03;;;32.83;;
55053;SDS011;40954;45.668;18.980;2023-02-15T04:17:20;48.42;;;31.35;;
55053;SDS011;40954;45.668;18.980;2023-02-15T04:19:46;55.45;;;33.75;;
55053;SDS011;40954;45.668;18.980;2023-02-15T04:22:31;51.28;;;32.45;;
55053;SDS011;40954;45.668;18.980;2023-02-15T04:25:15;54.10;;;33.17;;
55053;SDS011;40954;45.668;18.980;2023-02-15T04:27:42;56.55;;;34.70;;
55053;SDS011;40954;45.668;18.980;2023-02-15T04:30:09;50.20;;;32.08;;
55053;SDS011;40954;45.668;18.980;2023-02-15T04:32:35;50.22;;;33.47;;
55053;SDS011;40954;45.668;18.980;2023-02-15T04:35:01;57.33;;;33.80;;
55053;SDS011;40954;45.668;18.980;2023-02-15T04:37:28;50.83;;;32.72;;
55053;SDS011;40954;45.668;18.980;2023-02-15T04:39:54;52.03;;;32.17;;
55053;SDS011;40954;45.668;18.980;2023-02-15T04:42:20;52.78;;;30.85;;
55053;SDS011;40954;45.668;18.980;2023-02-15T04:44:46;54.33;;;34.60;;
55053;SDS011;40954;45.668;18.980;2023-02-15T04:47:12;52.83;;;31.42;;
55053;SDS011;40954;45.668;18.980;2023-02-15T04:49:38;47.88;;;31.60;;
55053;SDS011;40954;45.668;18.980;2023-02-15T04:52:04;53.78;;;32.90;;
55053;SDS011;40954;45.668;18.980;2023-02-15T04:54:30;55.30;;;33.42;;
55053;SDS011;40954;45.668;18.980;2023-02-15T04:56:56;47.10;;;30.58;;
55053;SDS011;40954;45.668;18.980;2023-02-15T04:59:22;51.38;;;32.38;;
55053;SDS011;40954;45.668;18.980;2023-02-15T05:01:48;52.15;;;31.45;;
55053;SDS011;40954;45.668;18.980;2023-02-15T05:04:14;53.83;;;33.10;;
55053;SDS011;40954;45.668;18.980;2023-02-15T05:06:40;51.10;;;32.58;;
55053;SDS011;40954;45.668;18.980;2023-02-15T05:09:06;60.67;;;35.20;;
55053;SDS011;40954;45.668;18.980;2023-02-15T05:11:32;53.03;;;33.67;;
55053;SDS011;40954;45.668;18.980;2023-02-15T05:13:58;55.65;;;33.33;;
55053;SDS011;40954;45.668;18.980;2023-02-15T05:16:24;52.28;;;33.25;;
55053;SDS011;40954;45.668;18.980;2023-02-15T05:18:52;50.38;;;31.63;;
55053;SDS011;40954;45.668;18.980;2023-02-15T05:21:18;49.97;;;32.17;;
55053;SDS011;40954;45.668;18.980;2023-02-15T05:23:44;53.28;;;32.55;;
55053;SDS011;40954;45.668;18.980;2023-02-15T05:26:16;51.55;;;32.72;;
55053;SDS011;40954;45.668;18.980;2023-02-15T05:29:00;52.20;;;32.13;;
55053;SDS011;40954;45.668;18.980;2023-02-15T05:31:26;52.92;;;32.67;;
55053;SDS011;40954;45.668;18.980;2023-02-15T05:33:52;49.05;;;31.80;;
55053;SDS011;40954;45.668;18.980;2023-02-15T05:36:18;54.47;;;32.38;;
55053;SDS011;40954;45.668;18.980;2023-02-15T05:38:44;50.90;;;31.77;;
55053;SDS011;40954;45.668;18.980;2023-02-15T05:41:10;51.10;;;31.58;;
55053;SDS011;40954;45.668;18.980;2023-02-15T05:43:37;49.80;;;31.60;;
55053;SDS011;40954;45.668;18.980;2023-02-15T05:46:03;49.90;;;31.73;;
55053;SDS011;40954;45.668;18.980;2023-02-15T05:48:30;53.78;;;33.00;;
55053;SDS011;40954;45.668;18.980;2023-02-15T05:51:00;53.83;;;33.65;;
55053;SDS011;40954;45.668;18.980;2023-02-15T05:53:27;59.13;;;33.90;;
55053;SDS011;40954;45.668;18.980;2023-02-15T05:55:53;58.75;;;35.28;;
55053;SDS011;40954;45.668;18.980;2023-02-15T05:58:24;56.88;;;36.47;;
55053;SDS011;40954;45.668;18.980;2023-02-15T06:00:50;56.78;;;34.53;;
55053;SDS011;40954;45.668;18.980;2023-02-15T06:03:16;53.72;;;34.42;;
55053;SDS011;40954;45.668;18.980;2023-02-15T06:05:42;53.35;;;34.55;;
55053;SDS011;40954;45.668;18.980;2023-02-15T06:08:08;63.22;;;39.22;;
55053;SDS011;40954;45.668;18.980;2023-02-15T06:10:34;65.47;;;39.95;;
55053;SDS011;40954;45.668;18.980;2023-02-15T06:13:00;62.65;;;37.78;;
55053;SDS011;40954;45.668;18.980;2023-02-15T06:15:26;60.22;;;37.88;;
55053;SDS011;40954;45.668;18.980;2023-02-15T06:17:52;81.32;;;44.80;;
55053;SDS011;40954;45.668;18.980;2023-02-15T06:20:18;61.50;;;37.03;;
55053;SDS011;40954;45.668;18.980;2023-02-15T06:22:44;57.50;;;37.17;;
55053;SDS011;40954;45.668;18.980;2023-02-15T06:25:10;51.95;;;33.72;;
55053;SDS011;40954;45.668;18.980;2023-02-15T06:27:36;54.80;;;34.63;;
55053;SDS011;40954;45.668;18.980;2023-02-15T06:30:04;56.42;;;34.03;;
55053;SDS011;40954;45.668;18.980;2023-02-15T06:32:30;59.85;;;36.30;;
55053;SDS011;40954;45.668;18.980;2023-02-15T06:34:57;60.45;;;38.25;;
55053;SDS011;40954;45.668;18.980;2023-02-15T06:37:23;55.80;;;34.60;;
55053;SDS011;40954;45.668;18.980;2023-02-15T06:39:49;57.17;;;34.72;;
55053;SDS011;40954;45.668;18.980;2023-02-15T06:42:15;56.60;;;34.40;;
55053;SDS011;40954;45.668;18.980;2023-02-15T06:44:42;50.75;;;34.42;;
55053;SDS011;40954;45.668;18.980;2023-02-15T06:47:08;50.70;;;33.67;;
55053;SDS011;40954;45.668;18.980;2023-02-15T06:49:35;62.75;;;40.55;;
55053;SDS011;40954;45.668;18.980;2023-02-15T06:52:02;68.43;;;43.22;;
55053;SDS011;40954;45.668;18.980;2023-02-15T06:54:28;77.35;;;48.05;;
55053;SDS011;40954;45.668;18.980;2023-02-15T06:56:54;70.32;;;44.58;;
55053;SDS011;40954;45.668;18.980;2023-02-15T06:59:20;75.60;;;48.33;;
55053;SDS011;40954;45.668;18.980;2023-02-15T07:01:46;69.28;;;43.28;;
55053;SDS011;40954;45.668;18.980;2023-02-15T07:04:12;68.30;;;41.83;;
55053;SDS011;40954;45.668;18.980;2023-02-15T07:06:38;81.78;;;52.70;;
55053;SDS011;40954;45.668;18.980;2023-02-15T07:09:05;75.97;;;46.70;;
55053;SDS011;40954;45.668;18.980;2023-02-15T07:11:31;57.70;;;37.72;;
55053;SDS011;40954;45.668;18.980;2023-02-15T07:14:15;65.35;;;38.15;;
55053;SDS011;40954;45.668;18.980;2023-02-15T07:16:41;60.45;;;39.03;;
55053;SDS011;40954;45.668;18.980;2023-02-15T07:19:07;60.50;;;38.85;;
55053;SDS011;40954;45.668;18.980;2023-02-15T07:21:34;69.75;;;42.13;;
55053;SDS011;40954;45.668;18.980;2023-02-15T07:24:00;69.63;;;44.88;;
55053;SDS011;40954;45.668;18.980;2023-02-15T07:26:26;73.97;;;46.72;;
55053;SDS011;40954;45.668;18.980;2023-02-15T07:28:52;65.45;;;40.58;;
55053;SDS011;40954;45.668;18.980;2023-02-15T07:31:18;68.28;;;42.22;;
55053;SDS011;40954;45.668;18.980;2023-02-15T07:33:44;76.07;;;46.50;;
55053;SDS011;40954;45.668;18.980;2023-02-15T07:36:11;74.35;;;47.08;;
55053;SDS011;40954;45.668;18.980;2023-02-15T07:38:38;69.45;;;43.78;;
55053;SDS011;40954;45.668;18.980;2023-02-15T07:41:05;61.28;;;39.70;;
55053;SDS011;40954;45.668;18.980;2023-02-15T07:43:32;64.03;;;42.20;;
55053;SDS011;40954;45.668;18.980;2023-02-15T07:45:59;66.72;;;43.47;;
55053;SDS011;40954;45.668;18.980;2023-02-15T07:48:25;62.40;;;42.72;;
55053;SDS011;40954;45.668;18.980;2023-02-15T07:50:52;62.30;;;41.08;;
55053;SDS011;40954;45.668;18.980;2023-02-15T07:53:18;66.13;;;43.55;;
55053;SDS011;40954;45.668;18.980;2023-02-15T07:55:44;72.47;;;45.10;;
55053;SDS011;40954;45.668;18.980;2023-02-15T07:58:10;76.38;;;48.63;;
55053;SDS011;40954;45.668;18.980;2023-02-15T08:00:36;73.20;;;47.90;;
55053;SDS011;40954;45.668;18.980;2023-02-15T08:03:25;80.05;;;52.20;;
55053;SDS011;40954;45.668;18.980;2023-02-15T08:05:57;84.10;;;53.63;;
55053;SDS011;40954;45.668;18.980;2023-02-15T08:08:23;85.97;;;56.25;;
55053;SDS011;40954;45.668;18.980;2023-02-15T08:11:03;91.10;;;60.22;;
55053;SDS011;40954;45.668;18.980;2023-02-15T08:13:50;89.95;;;59.55;;
55053;SDS011;40954;45.668;18.980;2023-02-15T08:16:28;95.80;;;62.47;;
55053;SDS011;40954;45.668;18.980;2023-02-15T08:18:55;116.80;;;73.22;;
55053;SDS011;40954;45.668;18.980;2023-02-15T08:21:22;106.88;;;66.80;;
55053;SDS011;40954;45.668;18.980;2023-02-15T08:23:48;111.57;;;71.55;;
55053;SDS011;40954;45.668;18.980;2023-02-15T08:26:14;97.78;;;62.90;;
55053;SDS011;40954;45.668;18.980;2023-02-15T08:28:41;94.32;;;59.78;;
55053;SDS011;40954;45.668;18.980;2023-02-15T08:31:09;90.22;;;57.15;;
55053;SDS011;40954;45.668;18.980;2023-02-15T08:33:36;73.50;;;46.10;;
55053;SDS011;40954;45.668;18.980;2023-02-15T08:36:07;69.32;;;45.03;;
55053;SDS011;40954;45.668;18.980;2023-02-15T08:38:33;51.58;;;35.30;;
55053;SDS011;40954;45.668;18.980;2023-02-15T08:43:55;42.40;;;29.80;;
55053;SDS011;40954;45.668;18.980;2023-02-15T08:46:22;43.72;;;28.45;;
55053;SDS011;40954;45.668;18.980;2023-02-15T08:48:49;48.05;;;32.30;;
55053;SDS011;40954;45.668;18.980;2023-02-15T08:51:16;47.92;;;30.23;;
55053;SDS011;40954;45.668;18.980;2023-02-15T08:53:43;50.20;;;33.65;;
55053;SDS011;40954;45.668;18.980;2023-02-15T08:56:09;51.58;;;32.00;;
55053;SDS011;40954;45.668;18.980;2023-02-15T08:58:36;43.80;;;30.25;;
55053;SDS011;40954;45.668;18.980;2023-02-15T09:01:07;39.47;;;27.73;;
55053;SDS011;40954;45.668;18.980;2023-02-15T09:03:33;43.40;;;29.07;;
55053;SDS011;40954;45.668;18.980;2023-02-15T09:06:00;47.90;;;33.08;;
55053;SDS011;40954;45.668;18.980;2023-02-15T09:08:26;51.13;;;33.47;;
55053;SDS011;40954;45.668;18.980;2023-02-15T09:10:52;42.88;;;29.23;;
55053;SDS011;40954;45.668;18.980;2023-02-15T09:13:18;43.53;;;29.05;;
55053;SDS011;40954;45.668;18.980;2023-02-15T09:15:45;37.65;;;25.73;;
55053;SDS011;40954;45.668;18.980;2023-02-15T09:18:11;36.58;;;25.77;;
55053;SDS011;40954;45.668;18.980;2023-02-15T09:20:42;39.20;;;27.75;;
55053;SDS011;40954;45.668;18.980;2023-02-15T09:23:08;38.05;;;27.05;;
55053;SDS011;40954;45.668;18.980;2023-02-15T09:25:34;36.42;;;27.35;;
55053;SDS011;40954;45.668;18.980;2023-02-15T09:28:00;35.63;;;24.73;;
55053;SDS011;40954;45.668;18.980;2023-02-15T09:30:26;36.38;;;25.80;;
55053;SDS011;40954;45.668;18.980;2023-02-15T09:32:52;37.60;;;24.15;;
55053;SDS011;40954;45.668;18.980;2023-02-15T09:35:18;33.70;;;24.65;;
55053;SDS011;40954;45.668;18.980;2023-02-15T09:37:44;34.22;;;25.48;;
55053;SDS011;40954;45.668;18.980;2023-02-15T09:40:11;33.00;;;24.15;;
55053;SDS011;40954;45.668;18.980;2023-02-15T09:42:50;34.28;;;24.77;;
55053;SDS011;40954;45.668;18.980;2023-02-15T09:45:28;35.50;;;23.33;;
55053;SDS011;40954;45.668;18.980;2023-02-15T09:53:21;33.35;;;24.20;;
55053;SDS011;40954;45.668;18.980;2023-02-15T09:56:06;35.78;;;24.27;;
55053;SDS011;40954;45.668;18.980;2023-02-15T10:19:04;33.33;;;22.63;;
55053;SDS011;40954;45.668;18.980;2023-02-15T10:26:37;37.53;;;25.67;;
55053;SDS011;40954;45.668;18.980;2023-02-15T10:29:09;34.50;;;25.20;;
55053;SDS011;40954;45.668;18.980;2023-02-15T10:45:23;37.13;;;25.23;;
55053;SDS011;40954;45.668;18.980;2023-02-15T11:00:47;32.83;;;24.85;;
55053;SDS011;40954;45.668;18.980;2023-02-15T11:04:01;36.80;;;27.20;;
55053;SDS011;40954;45.668;18.980;2023-02-15T11:06:09;37.45;;;25.52;;
55053;SDS011;40954;45.668;18.980;2023-02-15T11:08:44;30.95;;;23.38;;
55053;SDS011;40954;45.668;18.980;2023-02-15T11:11:12;33.53;;;25.20;;
55053;SDS011;40954;45.668;18.980;2023-02-15T11:13:44;31.83;;;24.17;;
55053;SDS011;40954;45.668;18.980;2023-02-15T11:16:16;30.83;;;25.20;;
55053;SDS011;40954;45.668;18.980;2023-02-15T11:23:41;28.35;;;23.98;;
55053;SDS011;40954;45.668;18.980;2023-02-15T11:29:10;26.98;;;23.38;;
55053;SDS011;40954;45.668;18.980;2023-02-15T11:31:44;26.05;;;23.35;;
55053;SDS011;40954;45.668;18.980;2023-02-15T11:34:12;25.80;;;23.10;;
55053;SDS011;40954;45.668;18.980;2023-02-15T11:36:40;23.58;;;21.13;;
55053;SDS011;40954;45.668;18.980;2023-02-15T11:39:11;24.58;;;21.85;;
55053;SDS011;40954;45.668;18.980;2023-02-15T11:41:39;25.25;;;22.65;;
55053;SDS011;40954;45.668;18.980;2023-02-15T11:46:33;26.25;;;22.77;;
55053;SDS011;40954;45.668;18.980;2023-02-15T11:48:59;26.23;;;23.45;;
55053;SDS011;40954;45.668;18.980;2023-02-15T11:51:25;26.10;;;23.50;;
55053;SDS011;40954;45.668;18.980;2023-02-15T11:53:53;26.70;;;23.75;;
55053;SDS011;40954;45.668;18.980;2023-02-15T11:56:23;27.40;;;24.60;;
55053;SDS011;40954;45.668;18.980;2023-02-15T11:58:56;31.30;;;28.13;;
55053;SDS011;40954;45.668;18.980;2023-02-15T12:01:34;25.13;;;22.63;;
55053;SDS011;40954;45.668;18.980;2023-02-15T12:04:04;24.50;;;21.98;;
55053;SDS011;40954;45.668;18.980;2023-02-15T12:06:34;22.80;;;20.50;;
55053;SDS011;40954;45.668;18.980;2023-02-15T12:09:09;26.27;;;23.30;;
55053;SDS011;40954;45.668;18.980;2023-02-15T12:11:43;25.02;;;22.50;;
55053;SDS011;40954;45.668;18.980;2023-02-15T12:14:10;23.85;;;21.55;;
55053;SDS011;40954;45.668;18.980;2023-02-15T12:19:10;23.77;;;21.48;;
55053;SDS011;40954;45.668;18.980;2023-02-15T12:21:39;23.25;;;20.70;;
55053;SDS011;40954;45.668;18.980;2023-02-15T12:24:14;20.90;;;18.88;;
55053;SDS011;40954;45.668;18.980;2023-02-15T12:26:42;21.70;;;19.55;;
55053;SDS011;40954;45.668;18.980;2023-02-15T12:29:17;21.27;;;19.20;;
55053;SDS011;40954;45.668;18.980;2023-02-15T12:31:47;20.42;;;18.42;;
55053;SDS011;40954;45.668;18.980;2023-02-15T12:34:25;20.15;;;18.40;;
55053;SDS011;40954;45.668;18.980;2023-02-15T12:36:53;20.92;;;18.92;;
55053;SDS011;40954;45.668;18.980;2023-02-15T12:39:26;19.23;;;17.35;;
55053;SDS011;40954;45.668;18.980;2023-02-15T12:44:22;19.42;;;17.35;;
55053;SDS011;40954;45.668;18.980;2023-02-15T12:47:33;19.30;;;17.40;;
55053;SDS011;40954;45.668;18.980;2023-02-15T12:49:40;18.63;;;16.65;;
55053;SDS011;40954;45.668;18.980;2023-02-15T12:52:23;17.98;;;16.30;;
55053;SDS011;40954;45.668;18.980;2023-02-15T12:54:49;18.55;;;16.90;;
55053;SDS011;40954;45.668;18.980;2023-02-15T13:03:02;17.98;;;16.25;;
55053;SDS011;40954;45.668;18.980;2023-02-15T13:07:38;16.83;;;15.23;;
55053;SDS011;40954;45.668;18.980;2023-02-15T13:10:22;19.08;;;17.13;;
55053;SDS011;40954;45.668;18.980;2023-02-15T13:12:49;17.95;;;16.20;;
55053;SDS011;40954;45.668;18.980;2023-02-15T13:15:37;17.02;;;15.52;;
55053;SDS011;40954;45.668;18.980;2023-02-15T13:18:05;16.08;;;14.60;;
55053;SDS011;40954;45.668;18.980;2023-02-15T13:20:36;17.90;;;16.20;;
55053;SDS011;40954;45.668;18.980;2023-02-15T13:23:06;19.42;;;17.50;;
55053;SDS011;40954;45.668;18.980;2023-02-15T13:25:43;19.50;;;16.95;;
55053;SDS011;40954;45.668;18.980;2023-02-15T13:30:42;18.55;;;16.88;;
55053;SDS011;40954;45.668;18.980;2023-02-15T13:33:11;19.65;;;17.58;;
55053;SDS011;40954;45.668;18.980;2023-02-15T13:35:42;19.88;;;16.38;;
55053;SDS011;40954;45.668;18.980;2023-02-15T13:43:35;18.05;;;16.15;;
55053;SDS011;40954;45.668;18.980;2023-02-15T13:48:34;18.90;;;17.08;;
55053;SDS011;40954;45.668;18.980;2023-02-15T13:58:50;18.38;;;16.42;;
55053;SDS011;40954;45.668;18.980;2023-02-15T14:01:28;18.95;;;16.98;;
55053;SDS011;40954;45.668;18.980;2023-02-15T14:04:03;18.20;;;16.35;;
55053;SDS011;40954;45.668;18.980;2023-02-15T14:17:12;19.00;;;17.10;;
55053;SDS011;40954;45.668;18.980;2023-02-15T14:19:48;20.17;;;18.17;;
55053;SDS011;40954;45.668;18.980;2023-02-15T14:27:27;18.67;;;16.73;;
55053;SDS011;40954;45.668;18.980;2023-02-15T14:30:00;19.83;;;17.85;;
55053;SDS011;40954;45.668;18.980;2023-02-15T14:34:58;22.48;;;19.27;;
55053;SDS011;40954;45.668;18.980;2023-02-15T14:42:58;28.63;;;23.27;;
55053;SDS011;40954;45.668;18.980;2023-02-15T14:45:30;32.75;;;24.58;;
55053;SDS011;40954;45.668;18.980;2023-02-15T14:50:37;16.95;;;14.93;;
55053;SDS011;40954;45.668;18.980;2023-02-15T14:53:14;23.65;;;21.10;;
55053;SDS011;40954;45.668;18.980;2023-02-15T14:55:40;33.15;;;26.55;;
55053;SDS011;40954;45.668;18.980;2023-02-15T14:58:10;27.13;;;23.20;;
55053;SDS011;40954;45.668;18.980;2023-02-15T15:00:37;43.88;;;31.20;;
55053;SDS011;40954;45.668;18.980;2023-02-15T15:03:10;41.90;;;32.17;;
55053;SDS011;40954;45.668;18.980;2023-02-15T15:05:37;37.47;;;29.15;;
55053;SDS011;40954;45.668;18.980;2023-02-15T15:08:21;38.22;;;31.27;;
55053;SDS011;40954;45.668;18.980;2023-02-15T15:10:48;51.95;;;37.70;;
55053;SDS011;40954;45.668;18.980;2023-02-15T15:13:56;46.25;;;32.53;;
55053;SDS011;40954;45.668;18.980;2023-02-15T15:18:48;46.10;;;35.88;;
55053;SDS011;40954;45.668;18.980;2023-02-15T15:23:59;44.53;;;34.65;;
55053;SDS011;40954;45.668;18.980;2023-02-15T15:26:29;52.88;;;39.25;;
55053;SDS011;40954;45.668;18.980;2023-02-15T15:28:58;53.15;;;40.67;;
55053;SDS011;40954;45.668;18.980;2023-02-15T15:31:31;53.17;;;39.40;;
55053;SDS011;40954;45.668;18.980;2023-02-15T15:41:40;58.53;;;43.38;;
55053;SDS011;40954;45.668;18.980;2023-02-15T15:49:30;76.03;;;54.70;;
55053;SDS011;40954;45.668;18.980;2023-02-15T15:51:59;75.07;;;53.65;;
55053;SDS011;40954;45.668;18.980;2023-02-15T15:54:26;75.28;;;51.97;;
55053;SDS011;40954;45.668;18.980;2023-02-15T15:56:53;81.65;;;56.50;;
55053;SDS011;40954;45.668;18.980;2023-02-15T15:59:22;76.97;;;55.53;;
55053;SDS011;40954;45.668;18.980;2023-02-15T16:01:49;83.97;;;59.00;;
55053;SDS011;40954;45.668;18.980;2023-02-15T16:04:29;73.70;;;51.85;;
55053;SDS011;40954;45.668;18.980;2023-02-15T16:06:56;73.88;;;50.55;;
55053;SDS011;40954;45.668;18.980;2023-02-15T16:11:49;78.78;;;54.50;;
55053;SDS011;40954;45.668;18.980;2023-02-15T16:14:17;80.78;;;55.15;;
55053;SDS011;40954;45.668;18.980;2023-02-15T16:16:51;82.57;;;57.27;;
55053;SDS011;40954;45.668;18.980;2023-02-15T16:19:18;92.95;;;64.53;;
55053;SDS011;40954;45.668;18.980;2023-02-15T16:21:46;141.50;;;101.00;;
55053;SDS011;40954;45.668;18.980;2023-02-15T16:24:28;121.68;;;84.40;;
55053;SDS011;40954;45.668;18.980;2023-02-15T16:29:43;126.45;;;88.95;;
55053;SDS011;40954;45.668;18.980;2023-02-15T16:32:22;140.18;;;96.75;;
55053;SDS011;40954;45.668;18.980;2023-02-15T16:34:53;129.85;;;94.10;;
55053;SDS011;40954;45.668;18.980;2023-02-15T16:37:20;121.30;;;87.72;;
55053;SDS011;40954;45.668;18.980;2023-02-15T16:39:51;116.20;;;81.50;;
55053;SDS011;40954;45.668;18.980;2023-02-15T16:42:17;109.55;;;75.53;;
55053;SDS011;40954;45.668;18.980;2023-02-15T16:45:05;108.80;;;71.00;;
55053;SDS011;40954;45.668;18.980;2023-02-15T16:47:30;106.60;;;68.55;;
55053;SDS011;40954;45.668;18.980;2023-02-15T16:49:58;120.40;;;75.78;;
55053;SDS011;40954;45.668;18.980;2023-02-15T16:52:25;120.72;;;75.18;;
55053;SDS011;40954;45.668;18.980;2023-02-15T16:54:56;114.22;;;71.55;;
55053;SDS011;40954;45.668;18.980;2023-02-15T16:57:24;112.55;;;72.28;;
55053;SDS011;40954;45.668;18.980;2023-02-15T16:59:55;117.85;;;79.35;;
55053;SDS011;40954;45.668;18.980;2023-02-15T17:02:30;127.20;;;86.30;;
55053;SDS011;40954;45.668;18.980;2023-02-15T17:05:16;127.18;;;83.35;;
55053;SDS011;40954;45.668;18.980;2023-02-15T17:07:51;123.15;;;78.93;;
55053;SDS011;40954;45.668;18.980;2023-02-15T17:10:34;130.23;;;84.47;;
55053;SDS011;40954;45.668;18.980;2023-02-15T17:13:11;137.30;;;86.38;;
55053;SDS011;40954;45.668;18.980;2023-02-15T17:15:38;136.50;;;87.13;;
55053;SDS011;40954;45.668;18.980;2023-02-15T17:18:06;150.52;;;93.78;;
55053;SDS011;40954;45.668;18.980;2023-02-15T17:20:35;147.30;;;89.55;;